sensor_id;sensor_type;location;lat;lon;timestamp;pressure;altitude;pressure_sealevel;temperature;humidity
29825;BME280;16713;52.916;12.834;2023-03-15T00:01:19;100076.28;;;1.47;71.19
29825;BME280;16713;52.916;12.834;2023-03-15T00:03:46;100079.22;;;1.59;71.34
29825;BME280;16713;52.916;12.834;2023-03-15T00:06:13;100086.13;;;1.73;70.62
29825;BME280;16713;52.916;12.834;2023-03-15T00:08:40;100086.00;;;1.48;71.17
29825;BME280;16713;52.916;12.834;2023-03-15T00:11:06;100099.28;;;1.66;71.29
29825;BME280;16713;52.916;12.834;2023-03-15T00:13:33;100100.03;;;1.58;71.31
29825;BME280;16713;52.916;12.834;2023-03-15T00:16:00;100103.50;;;1.50;70.44
29825;BME280;16713;52.916;12.834;2023-03-15T00:18:31;100105.53;;;1.45;71.45
29825;BME280;16713;52.916;12.834;2023-03-15T00:20:57;100104.09;;;1.47;70.75
29825;BME280;16713;52.916;12.834;2023-03-15T00:23:24;100114.38;;;1.37;71.24
29825;BME280;16713;52.916;12.834;2023-03-15T00:25:52;100120.56;;;1.59;71.04
29825;BME280;16713;52.916;12.834;2023-03-15T00:28:19;100125.53;;;1.66;70.50
29825;BME280;16713;52.916;12.834;2023-03-15T00:30:45;100124.91;;;1.69;70.68
29825;BME280;16713;52.916;12.834;2023-03-15T00:33:13;100123.91;;;1.65;70.96
29825;BME280;16713;52.916;12.834;2023-03-15T00:35:41;100131.50;;;1.54;70.84
29825;BME280;16713;52.916;12.834;2023-03-15T00:38:08;100136.34;;;1.66;70.83
29825;BME280;16713;52.916;12.834;2023-03-15T00:40:36;100138.13;;;1.79;70.57
29825;BME280;16713;52.916;12.834;2023-03-15T00:45:40;100141.84;;;1.83;70.20
29825;BME280;16713;52.916;12.834;2023-03-15T00:48:07;100144.13;;;1.45;70.84
29825;BME280;16713;52.916;12.834;2023-03-15T00:50:34;100142.00;;;1.34;71.12
29825;BME280;16713;52.916;12.834;2023-03-15T00:53:00;100161.69;;;1.56;70.86
29825;BME280;16713;52.916;12.834;2023-03-15T00:55:27;100157.09;;;1.57;70.74
29825;BME280;16713;52.916;12.834;2023-03-15T00:57:53;100168.53;;;1.54;70.38
29825;BME280;16713;52.916;12.834;2023-03-15T01:00:21;100170.91;;;1.55;71.15
29825;BME280;16713;52.916;12.834;2023-03-15T01:02:51;100169.75;;;1.48;70.26
29825;BME280;16713;52.916;12.834;2023-03-15T01:05:18;100176.50;;;1.37;71.61
29825;BME280;16713;52.916;12.834;2023-03-15T01:07:44;100184.50;;;1.64;71.26
29825;BME280;16713;52.916;12.834;2023-03-15T01:10:13;100182.22;;;1.57;71.04
29825;BME280;16713;52.916;12.834;2023-03-15T01:12:40;100177.06;;;1.47;71.08
29825;BME280;16713;52.916;12.834;2023-03-15T01:15:08;100187.38;;;1.45;71.21
29825;BME280;16713;52.916;12.834;2023-03-15T01:17:35;100186.16;;;1.51;71.26
29825;BME280;16713;52.916;12.834;2023-03-15T01:20:02;100190.63;;;1.34;72.19
29825;BME280;16713;52.916;12.834;2023-03-15T01:22:30;100195.72;;;1.35;71.84
29825;BME280;16713;52.916;12.834;2023-03-15T01:24:57;100195.00;;;1.43;71.32
29825;BME280;16713;52.916;12.834;2023-03-15T01:27:23;100203.63;;;1.32;71.79
29825;BME280;16713;52.916;12.834;2023-03-15T01:29:49;100210.59;;;1.68;71.10
29825;BME280;16713;52.916;12.834;2023-03-15T01:32:16;100205.81;;;1.43;71.62
29825;BME280;16713;52.916;12.834;2023-03-15T01:34:42;100204.41;;;1.32;71.51
29825;BME280;16713;52.916;12.834;2023-03-15T01:37:09;100208.50;;;1.65;71.10
29825;BME280;16713;52.916;12.834;2023-03-15T01:39:41;100197.28;;;1.50;71.02
29825;BME280;16713;52.916;12.834;2023-03-15T01:42:08;100203.56;;;1.23;71.04
29825;BME280;16713;52.916;12.834;2023-03-15T01:45:48;100210.28;;;1.48;71.88
29825;BME280;16713;52.916;12.834;2023-03-15T01:47:51;100212.00;;;1.44;71.10
29825;BME280;16713;52.916;12.834;2023-03-15T01:50:18;100215.94;;;1.24;71.61
29825;BME280;16713;52.916;12.834;2023-03-15T01:52:45;100221.41;;;1.46;71.79
29825;BME280;16713;52.916;12.834;2023-03-15T01:55:14;100217.28;;;1.13;71.61
29825;BME280;16713;52.916;12.834;2023-03-15T01:57:53;100215.53;;;1.31;71.92
29825;BME280;16713;52.916;12.834;2023-03-15T02:00:21;100221.50;;;1.41;71.81
29825;BME280;16713;52.916;12.834;2023-03-15T02:02:52;100224.44;;;1.31;71.64
29825;BME280;16713;52.916;12.834;2023-03-15T02:05:27;100231.25;;;1.29;71.58
29825;BME280;16713;52.916;12.834;2023-03-15T02:07:55;100237.81;;;1.50;71.47
29825;BME280;16713;52.916;12.834;2023-03-15T02:10:30;100229.94;;;1.40;71.73
29825;BME280;16713;52.916;12.834;2023-03-15T02:12:59;100233.28;;;1.45;71.26
29825;BME280;16713;52.916;12.834;2023-03-15T02:15:26;100237.09;;;1.44;71.77
29825;BME280;16713;52.916;12.834;2023-03-15T02:17:52;100237.94;;;1.31;72.33
29825;BME280;16713;52.916;12.834;2023-03-15T02:20:36;100244.25;;;1.27;72.85
29825;BME280;16713;52.916;12.834;2023-03-15T02:23:10;100253.03;;;1.32;71.84
29825;BME280;16713;52.916;12.834;2023-03-15T02:26:06;100250.88;;;1.21;72.17
29825;BME280;16713;52.916;12.834;2023-03-15T02:28:39;100251.19;;;1.19;71.90
29825;BME280;16713;52.916;12.834;2023-03-15T02:31:06;100249.00;;;1.08;72.56
29825;BME280;16713;52.916;12.834;2023-03-15T02:33:43;100256.66;;;1.28;73.04
29825;BME280;16713;52.916;12.834;2023-03-15T02:38:48;100251.03;;;0.89;72.87
29825;BME280;16713;52.916;12.834;2023-03-15T02:41:20;100256.91;;;1.18;73.04
29825;BME280;16713;52.916;12.834;2023-03-15T02:43:52;100252.72;;;0.98;73.42
29825;BME280;16713;52.916;12.834;2023-03-15T02:46:21;100259.22;;;0.97;73.38
29825;BME280;16713;52.916;12.834;2023-03-15T02:48:48;100254.72;;;0.93;73.13
29825;BME280;16713;52.916;12.834;2023-03-15T02:51:27;100257.69;;;1.18;73.23
29825;BME280;16713;52.916;12.834;2023-03-15T02:53:53;100265.63;;;1.01;72.61
29825;BME280;16713;52.916;12.834;2023-03-15T02:56:20;100263.53;;;0.98;72.71
29825;BME280;16713;52.916;12.834;2023-03-15T02:58:47;100273.91;;;0.91;73.33
29825;BME280;16713;52.916;12.834;2023-03-15T03:01:14;100279.72;;;0.85;73.36
29825;BME280;16713;52.916;12.834;2023-03-15T03:03:43;100275.22;;;0.80;74.71
29825;BME280;16713;52.916;12.834;2023-03-15T03:06:11;100285.13;;;0.85;73.59
29825;BME280;16713;52.916;12.834;2023-03-15T03:08:38;100285.63;;;0.87;73.61
29825;BME280;16713;52.916;12.834;2023-03-15T03:11:05;100286.63;;;0.77;73.98
29825;BME280;16713;52.916;12.834;2023-03-15T03:13:32;100300.09;;;0.91;73.84
29825;BME280;16713;52.916;12.834;2023-03-15T03:15:59;100301.13;;;0.95;73.46
29825;BME280;16713;52.916;12.834;2023-03-15T03:18:27;100302.00;;;0.49;74.47
29825;BME280;16713;52.916;12.834;2023-03-15T03:20:55;100305.72;;;0.81;74.84
29825;BME280;16713;52.916;12.834;2023-03-15T03:23:25;100309.34;;;0.44;75.08
29825;BME280;16713;52.916;12.834;2023-03-15T03:25:53;100318.69;;;0.65;73.71
29825;BME280;16713;52.916;12.834;2023-03-15T03:28:21;100317.41;;;0.63;74.42
29825;BME280;16713;52.916;12.834;2023-03-15T03:30:50;100319.31;;;0.76;75.13
29825;BME280;16713;52.916;12.834;2023-03-15T03:33:17;100315.59;;;0.72;74.98
29825;BME280;16713;52.916;12.834;2023-03-15T03:35:44;100316.31;;;0.91;74.11
29825;BME280;16713;52.916;12.834;2023-03-15T03:38:11;100315.91;;;0.70;74.19
29825;BME280;16713;52.916;12.834;2023-03-15T03:40:38;100329.28;;;0.75;74.63
29825;BME280;16713;52.916;12.834;2023-03-15T03:43:06;100340.50;;;0.96;73.74
29825;BME280;16713;52.916;12.834;2023-03-15T03:45:33;100346.91;;;0.86;73.93
29825;BME280;16713;52.916;12.834;2023-03-15T03:48:02;100341.50;;;0.86;74.67
29825;BME280;16713;52.916;12.834;2023-03-15T03:50:29;100349.97;;;0.66;74.47
29825;BME280;16713;52.916;12.834;2023-03-15T03:52:56;100346.19;;;0.94;74.63
29825;BME280;16713;52.916;12.834;2023-03-15T03:55:23;100351.41;;;0.77;74.35
29825;BME280;16713;52.916;12.834;2023-03-15T03:57:50;100355.28;;;0.71;74.02
29825;BME280;16713;52.916;12.834;2023-03-15T04:00:18;100358.28;;;0.70;73.50
29825;BME280;16713;52.916;12.834;2023-03-15T04:02:45;100361.56;;;0.67;74.98
29825;BME280;16713;52.916;12.834;2023-03-15T04:05:12;100365.53;;;0.55;74.70
29825;BME280;16713;52.916;12.834;2023-03-15T04:07:38;100375.66;;;0.63;74.08
29825;BME280;16713;52.916;12.834;2023-03-15T04:10:05;100366.78;;;0.31;75.02
29825;BME280;16713;52.916;12.834;2023-03-15T04:12:32;100371.66;;;0.75;74.13
29825;BME280;16713;52.916;12.834;2023-03-15T04:14:58;100371.88;;;0.65;74.57
29825;BME280;16713;52.916;12.834;2023-03-15T04:17:25;100364.38;;;0.62;74.86
29825;BME280;16713;52.916;12.834;2023-03-15T04:19:51;100371.19;;;0.73;74.16
29825;BME280;16713;52.916;12.834;2023-03-15T04:22:18;100367.28;;;0.79;74.08
29825;BME280;16713;52.916;12.834;2023-03-15T04:24:44;100377.28;;;0.78;73.64
29825;BME280;16713;52.916;12.834;2023-03-15T04:27:11;100379.88;;;0.83;74.37
29825;BME280;16713;52.916;12.834;2023-03-15T04:29:41;100380.56;;;0.62;74.49
29825;BME280;16713;52.916;12.834;2023-03-15T04:32:09;100388.44;;;0.58;74.90
29825;BME280;16713;52.916;12.834;2023-03-15T04:34:35;100394.31;;;0.60;74.08
29825;BME280;16713;52.916;12.834;2023-03-15T04:37:05;100385.75;;;0.58;75.17
29825;BME280;16713;52.916;12.834;2023-03-15T04:39:31;100382.59;;;0.37;75.02
29825;BME280;16713;52.916;12.834;2023-03-15T04:41:58;100386.34;;;0.55;74.51
29825;BME280;16713;52.916;12.834;2023-03-15T04:44:24;100385.66;;;0.63;74.31
29825;BME280;16713;52.916;12.834;2023-03-15T04:46:53;100387.84;;;0.75;74.32
29825;BME280;16713;52.916;12.834;2023-03-15T04:49:20;100381.78;;;0.69;74.17
29825;BME280;16713;52.916;12.834;2023-03-15T04:51:46;100390.28;;;0.44;74.43
29825;BME280;16713;52.916;12.834;2023-03-15T04:54:13;100392.91;;;0.49;74.98
29825;BME280;16713;52.916;12.834;2023-03-15T04:56:39;100395.34;;;0.64;74.69
29825;BME280;16713;52.916;12.834;2023-03-15T04:59:07;100401.84;;;0.63;73.95
29825;BME280;16713;52.916;12.834;2023-03-15T05:01:36;100409.97;;;0.77;74.23
29825;BME280;16713;52.916;12.834;2023-03-15T05:04:03;100407.44;;;0.34;75.77
29825;BME280;16713;52.916;12.834;2023-03-15T05:06:30;100414.56;;;0.44;74.55
29825;BME280;16713;52.916;12.834;2023-03-15T05:08:56;100421.56;;;0.45;74.96
29825;BME280;16713;52.916;12.834;2023-03-15T05:11:23;100415.59;;;0.48;75.18
29825;BME280;16713;52.916;12.834;2023-03-15T05:13:49;100424.09;;;0.23;74.75
29825;BME280;16713;52.916;12.834;2023-03-15T05:16:16;100431.00;;;0.61;75.83
29825;BME280;16713;52.916;12.834;2023-03-15T05:18:43;100435.50;;;0.33;74.64
29825;BME280;16713;52.916;12.834;2023-03-15T05:21:11;100442.81;;;0.65;74.30
29825;BME280;16713;52.916;12.834;2023-03-15T05:23:38;100435.47;;;0.52;74.65
29825;BME280;16713;52.916;12.834;2023-03-15T05:26:05;100447.72;;;0.63;73.93
29825;BME280;16713;52.916;12.834;2023-03-15T05:28:31;100447.22;;;0.61;74.69
29825;BME280;16713;52.916;12.834;2023-03-15T05:30:58;100450.03;;;0.70;74.57
29825;BME280;16713;52.916;12.834;2023-03-15T05:33:26;100455.69;;;0.87;73.94
29825;BME280;16713;52.916;12.834;2023-03-15T05:35:52;100457.47;;;0.91;74.23
29825;BME280;16713;52.916;12.834;2023-03-15T05:38:21;100467.03;;;1.16;73.38
29825;BME280;16713;52.916;12.834;2023-03-15T05:40:51;100477.63;;;1.12;73.50
29825;BME280;16713;52.916;12.834;2023-03-15T05:43:18;100488.34;;;1.17;74.03
29825;BME280;16713;52.916;12.834;2023-03-15T05:45:45;100495.75;;;1.39;73.76
29825;BME280;16713;52.916;12.834;2023-03-15T05:48:14;100501.72;;;1.09;73.68
29825;BME280;16713;52.916;12.834;2023-03-15T05:50:42;100505.38;;;1.31;73.86
29825;BME280;16713;52.916;12.834;2023-03-15T05:53:09;100508.91;;;1.59;73.63
29825;BME280;16713;52.916;12.834;2023-03-15T05:55:35;100517.91;;;1.54;73.06
29825;BME280;16713;52.916;12.834;2023-03-15T05:58:02;100521.56;;;1.31;74.05
29825;BME280;16713;52.916;12.834;2023-03-15T06:00:29;100518.66;;;1.28;74.09
29825;BME280;16713;52.916;12.834;2023-03-15T06:02:55;100518.19;;;1.39;74.36
29825;BME280;16713;52.916;12.834;2023-03-15T06:05:22;100522.59;;;1.49;75.11
29825;BME280;16713;52.916;12.834;2023-03-15T06:07:48;100531.81;;;1.61;75.05
29825;BME280;16713;52.916;12.834;2023-03-15T06:10:15;100529.81;;;1.40;75.48
29825;BME280;16713;52.916;12.834;2023-03-15T06:12:41;100538.22;;;1.52;75.94
29825;BME280;16713;52.916;12.834;2023-03-15T06:15:08;100538.31;;;1.47;75.10
29825;BME280;16713;52.916;12.834;2023-03-15T06:17:35;100543.03;;;1.68;75.40
29825;BME280;16713;52.916;12.834;2023-03-15T06:20:01;100540.22;;;1.60;75.72
29825;BME280;16713;52.916;12.834;2023-03-15T06:22:27;100551.38;;;1.72;74.99
29825;BME280;16713;52.916;12.834;2023-03-15T06:24:54;100559.84;;;1.79;75.56
29825;BME280;16713;52.916;12.834;2023-03-15T06:27:20;100553.13;;;1.49;75.29
29825;BME280;16713;52.916;12.834;2023-03-15T06:29:48;100556.97;;;1.75;76.14
29825;BME280;16713;52.916;12.834;2023-03-15T06:32:15;100561.44;;;1.66;76.13
29825;BME280;16713;52.916;12.834;2023-03-15T06:34:42;100567.16;;;1.65;77.45
29825;BME280;16713;52.916;12.834;2023-03-15T06:37:09;100574.06;;;1.57;76.88
29825;BME280;16713;52.916;12.834;2023-03-15T06:39:45;100575.88;;;1.62;77.54
29825;BME280;16713;52.916;12.834;2023-03-15T06:42:12;100578.88;;;1.60;76.14
29825;BME280;16713;52.916;12.834;2023-03-15T06:44:39;100585.88;;;1.61;77.79
29825;BME280;16713;52.916;12.834;2023-03-15T06:47:07;100585.69;;;1.58;77.03
29825;BME280;16713;52.916;12.834;2023-03-15T06:49:34;100592.16;;;2.02;76.90
29825;BME280;16713;52.916;12.834;2023-03-15T06:52:02;100589.00;;;1.68;76.81
29825;BME280;16713;52.916;12.834;2023-03-15T06:54:29;100589.81;;;1.82;77.51
29825;BME280;16713;52.916;12.834;2023-03-15T06:56:56;100597.41;;;1.80;76.98
29825;BME280;16713;52.916;12.834;2023-03-15T06:59:23;100596.84;;;1.83;75.74
29825;BME280;16713;52.916;12.834;2023-03-15T07:01:49;100606.97;;;1.91;76.30
29825;BME280;16713;52.916;12.834;2023-03-15T07:04:16;100612.06;;;1.93;75.79
29825;BME280;16713;52.916;12.834;2023-03-15T07:06:42;100612.94;;;1.88;76.40
29825;BME280;16713;52.916;12.834;2023-03-15T07:09:08;100619.72;;;1.59;76.65
29825;BME280;16713;52.916;12.834;2023-03-15T07:11:35;100619.53;;;1.82;76.61
29825;BME280;16713;52.916;12.834;2023-03-15T07:14:01;100636.75;;;2.19;75.92
29825;BME280;16713;52.916;12.834;2023-03-15T07:16:28;100638.03;;;2.21;74.98
29825;BME280;16713;52.916;12.834;2023-03-15T07:18:54;100643.16;;;2.09;76.04
29825;BME280;16713;52.916;12.834;2023-03-15T07:21:21;100649.44;;;2.04;75.36
29825;BME280;16713;52.916;12.834;2023-03-15T07:23:48;100642.59;;;1.93;75.16
29825;BME280;16713;52.916;12.834;2023-03-15T07:26:14;100658.13;;;2.01;75.15
29825;BME280;16713;52.916;12.834;2023-03-15T07:28:41;100659.88;;;2.11;75.39
29825;BME280;16713;52.916;12.834;2023-03-15T07:31:10;100663.63;;;1.96;75.23
29825;BME280;16713;52.916;12.834;2023-03-15T07:33:37;100662.13;;;1.90;75.46
29825;BME280;16713;52.916;12.834;2023-03-15T07:36:05;100665.25;;;1.97;74.84
29825;BME280;16713;52.916;12.834;2023-03-15T07:38:32;100666.09;;;2.12;75.25
29825;BME280;16713;52.916;12.834;2023-03-15T07:41:04;100665.66;;;2.04;76.04
29825;BME280;16713;52.916;12.834;2023-03-15T07:43:31;100670.81;;;2.06;74.81
29825;BME280;16713;52.916;12.834;2023-03-15T07:45:58;100679.41;;;2.08;74.87
29825;BME280;16713;52.916;12.834;2023-03-15T07:48:24;100681.69;;;2.01;74.61
29825;BME280;16713;52.916;12.834;2023-03-15T07:50:51;100677.13;;;2.15;74.44
29825;BME280;16713;52.916;12.834;2023-03-15T07:53:17;100687.69;;;1.98;74.79
29825;BME280;16713;52.916;12.834;2023-03-15T07:55:46;100689.44;;;2.08;74.78
29825;BME280;16713;52.916;12.834;2023-03-15T07:58:12;100687.13;;;2.15;73.88
29825;BME280;16713;52.916;12.834;2023-03-15T08:00:39;100690.53;;;2.34;74.06
29825;BME280;16713;52.916;12.834;2023-03-15T08:03:06;100691.94;;;2.18;74.17
29825;BME280;16713;52.916;12.834;2023-03-15T08:05:34;100690.09;;;1.99;73.79
29825;BME280;16713;52.916;12.834;2023-03-15T08:08:01;100696.44;;;2.09;74.55
29825;BME280;16713;52.916;12.834;2023-03-15T08:10:28;100690.13;;;2.13;73.62
29825;BME280;16713;52.916;12.834;2023-03-15T08:12:54;100695.75;;;2.17;73.93
29825;BME280;16713;52.916;12.834;2023-03-15T08:15:21;100701.38;;;2.20;73.88
29825;BME280;16713;52.916;12.834;2023-03-15T08:17:48;100717.50;;;2.39;73.02
29825;BME280;16713;52.916;12.834;2023-03-15T08:20:15;100707.09;;;2.32;73.53
29825;BME280;16713;52.916;12.834;2023-03-15T08:22:46;100709.69;;;2.37;73.73
29825;BME280;16713;52.916;12.834;2023-03-15T08:25:15;100708.00;;;2.14;73.92
29825;BME280;16713;52.916;12.834;2023-03-15T08:27:42;100718.03;;;2.41;72.46
29825;BME280;16713;52.916;12.834;2023-03-15T08:30:11;100720.91;;;2.58;72.20
29825;BME280;16713;52.916;12.834;2023-03-15T08:32:42;100720.59;;;2.32;71.58
29825;BME280;16713;52.916;12.834;2023-03-15T08:35:10;100732.47;;;2.63;71.72
29825;BME280;16713;52.916;12.834;2023-03-15T08:37:41;100734.75;;;2.56;72.26
29825;BME280;16713;52.916;12.834;2023-03-15T08:40:16;100739.59;;;2.73;72.01
29825;BME280;16713;52.916;12.834;2023-03-15T08:42:44;100735.28;;;2.58;72.63
29825;BME280;16713;52.916;12.834;2023-03-15T08:45:11;100737.56;;;2.51;71.38
29825;BME280;16713;52.916;12.834;2023-03-15T08:47:37;100753.72;;;2.97;70.67
29825;BME280;16713;52.916;12.834;2023-03-15T08:50:06;100754.34;;;2.67;70.48
29825;BME280;16713;52.916;12.834;2023-03-15T08:52:33;100762.16;;;2.68;70.23
29825;BME280;16713;52.916;12.834;2023-03-15T08:55:00;100756.63;;;2.60;70.02
29825;BME280;16713;52.916;12.834;2023-03-15T08:57:26;100764.13;;;2.63;70.35
29825;BME280;16713;52.916;12.834;2023-03-15T08:59:54;100758.75;;;2.76;70.38
29825;BME280;16713;52.916;12.834;2023-03-15T09:02:21;100774.50;;;2.88;69.72
29825;BME280;16713;52.916;12.834;2023-03-15T09:04:49;100776.16;;;3.11;70.15
29825;BME280;16713;52.916;12.834;2023-03-15T09:07:18;100786.53;;;2.95;70.04
29825;BME280;16713;52.916;12.834;2023-03-15T09:09:45;100796.63;;;3.17;68.94
29825;BME280;16713;52.916;12.834;2023-03-15T09:12:14;100799.97;;;3.00;69.63
29825;BME280;16713;52.916;12.834;2023-03-15T09:14:42;100807.38;;;2.95;69.46
29825;BME280;16713;52.916;12.834;2023-03-15T09:17:08;100801.75;;;2.91;69.89
29825;BME280;16713;52.916;12.834;2023-03-15T09:19:35;100816.13;;;3.05;69.30
29825;BME280;16713;52.916;12.834;2023-03-15T09:22:02;100819.41;;;3.16;68.26
29825;BME280;16713;52.916;12.834;2023-03-15T09:24:42;100824.69;;;3.48;68.69
29825;BME280;16713;52.916;12.834;2023-03-15T09:27:09;100832.22;;;3.51;68.29
29825;BME280;16713;52.916;12.834;2023-03-15T09:29:36;100842.94;;;3.56;68.50
29825;BME280;16713;52.916;12.834;2023-03-15T09:32:03;100842.66;;;3.58;67.26
29825;BME280;16713;52.916;12.834;2023-03-15T09:34:30;100847.75;;;3.59;67.21
29825;BME280;16713;52.916;12.834;2023-03-15T09:37:07;100845.47;;;3.52;66.78
29825;BME280;16713;52.916;12.834;2023-03-15T09:39:33;100850.66;;;3.63;67.69
29825;BME280;16713;52.916;12.834;2023-03-15T09:42:01;100854.97;;;3.64;67.36
29825;BME280;16713;52.916;12.834;2023-03-15T09:50:20;100854.41;;;3.67;68.00
29825;BME280;16713;52.916;12.834;2023-03-15T09:52:50;100856.19;;;3.71;68.90
29825;BME280;16713;52.916;12.834;2023-03-15T09:55:26;100864.91;;;4.04;68.59
29825;BME280;16713;52.916;12.834;2023-03-15T09:57:57;100868.00;;;4.11;67.89
29825;BME280;16713;52.916;12.834;2023-03-15T10:03:02;100889.91;;;4.36;66.22
29825;BME280;16713;52.916;12.834;2023-03-15T10:05:44;100886.06;;;4.51;65.12
29825;BME280;16713;52.916;12.834;2023-03-15T10:08:15;100893.75;;;4.35;64.74
29825;BME280;16713;52.916;12.834;2023-03-15T10:11:22;100891.78;;;4.27;64.14
29825;BME280;16713;52.916;12.834;2023-03-15T10:16:42;100900.03;;;4.22;66.40
29825;BME280;16713;52.916;12.834;2023-03-15T10:19:28;100896.44;;;4.13;64.62
29825;BME280;16713;52.916;12.834;2023-03-15T10:22:21;100902.13;;;4.25;65.66
29825;BME280;16713;52.916;12.834;2023-03-15T10:24:58;100903.59;;;4.45;65.58
29825;BME280;16713;52.916;12.834;2023-03-15T10:30:00;100902.56;;;4.41;65.43
29825;BME280;16713;52.916;12.834;2023-03-15T10:32:41;100907.59;;;4.47;66.20
29825;BME280;16713;52.916;12.834;2023-03-15T10:35:16;100912.56;;;4.10;65.62
29825;BME280;16713;52.916;12.834;2023-03-15T10:37:43;100919.59;;;4.33;64.73
29825;BME280;16713;52.916;12.834;2023-03-15T10:40:12;100920.53;;;4.28;64.47
29825;BME280;16713;52.916;12.834;2023-03-15T10:42:43;100922.38;;;4.19;65.08
29825;BME280;16713;52.916;12.834;2023-03-15T10:45:18;100922.59;;;4.09;65.47
29825;BME280;16713;52.916;12.834;2023-03-15T10:47:45;100922.78;;;4.13;65.47
29825;BME280;16713;52.916;12.834;2023-03-15T10:50:27;100922.78;;;4.13;65.43
29825;BME280;16713;52.916;12.834;2023-03-15T10:52:56;100921.47;;;4.10;66.09
29825;BME280;16713;52.916;12.834;2023-03-15T10:55:33;100922.38;;;4.19;66.02
29825;BME280;16713;52.916;12.834;2023-03-15T10:58:19;100918.09;;;4.05;65.95
29825;BME280;16713;52.916;12.834;2023-03-15T11:00:51;100926.19;;;4.18;65.35
29825;BME280;16713;52.916;12.834;2023-03-15T11:03:20;100927.53;;;4.29;65.93
29825;BME280;16713;52.916;12.834;2023-03-15T11:05:51;100927.06;;;4.27;65.01
29825;BME280;16713;52.916;12.834;2023-03-15T11:08:20;100925.88;;;4.55;64.96
29825;BME280;16713;52.916;12.834;2023-03-15T11:10:58;100930.31;;;4.51;65.00
29825;BME280;16713;52.916;12.834;2023-03-15T11:13:27;100930.63;;;4.50;66.12
29825;BME280;16713;52.916;12.834;2023-03-15T11:18:45;100930.25;;;4.65;64.80
29825;BME280;16713;52.916;12.834;2023-03-15T11:21:14;100928.47;;;4.60;64.42
29825;BME280;16713;52.916;12.834;2023-03-15T11:23:45;100936.41;;;4.57;65.02
29825;BME280;16713;52.916;12.834;2023-03-15T11:26:22;100936.13;;;4.80;64.21
29825;BME280;16713;52.916;12.834;2023-03-15T11:29:02;100929.69;;;4.76;64.26
29825;BME280;16713;52.916;12.834;2023-03-15T11:31:30;100925.72;;;4.82;63.79
29825;BME280;16713;52.916;12.834;2023-03-15T11:33:59;100930.53;;;4.85;61.96
29825;BME280;16713;52.916;12.834;2023-03-15T11:36:29;100945.25;;;4.84;61.82
29825;BME280;16713;52.916;12.834;2023-03-15T11:38:58;100935.13;;;4.76;61.86
29825;BME280;16713;52.916;12.834;2023-03-15T11:41:40;100935.25;;;4.71;61.50
29825;BME280;16713;52.916;12.834;2023-03-15T11:44:19;100931.44;;;4.72;62.20
29825;BME280;16713;52.916;12.834;2023-03-15T11:46:53;100933.03;;;4.73;62.69
29825;BME280;16713;52.916;12.834;2023-03-15T11:49:32;100933.25;;;4.85;62.42
29825;BME280;16713;52.916;12.834;2023-03-15T11:52:00;100934.38;;;4.84;61.61
29825;BME280;16713;52.916;12.834;2023-03-15T11:54:28;100927.06;;;4.93;61.82
29825;BME280;16713;52.916;12.834;2023-03-15T11:57:03;100926.03;;;5.12;60.93
29825;BME280;16713;52.916;12.834;2023-03-15T11:59:38;100924.38;;;5.33;61.04
29825;BME280;16713;52.916;12.834;2023-03-15T12:07:56;100927.78;;;5.47;58.06
29825;BME280;16713;52.916;12.834;2023-03-15T12:10:19;100927.78;;;5.47;58.03
29825;BME280;16713;52.916;12.834;2023-03-15T12:12:45;100923.19;;;5.56;57.78
29825;BME280;16713;52.916;12.834;2023-03-15T12:17:56;100931.13;;;6.00;58.40
29825;BME280;16713;52.916;12.834;2023-03-15T12:20:38;100925.94;;;5.73;59.11
29825;BME280;16713;52.916;12.834;2023-03-15T12:28:34;100942.66;;;5.41;60.12
29825;BME280;16713;52.916;12.834;2023-03-15T12:31:06;100947.47;;;5.44;60.93
29825;BME280;16713;52.916;12.834;2023-03-15T12:33:52;100968.00;;;5.19;63.46
29825;BME280;16713;52.916;12.834;2023-03-15T12:36:36;100956.88;;;5.07;63.97
29825;BME280;16713;52.916;12.834;2023-03-15T12:41:46;100942.31;;;4.72;68.18
29825;BME280;16713;52.916;12.834;2023-03-15T12:51:58;100941.41;;;4.63;67.22
29825;BME280;16713;52.916;12.834;2023-03-15T12:54:31;100941.31;;;4.68;65.49
29825;BME280;16713;52.916;12.834;2023-03-15T12:57:00;100942.13;;;4.69;64.05
29825;BME280;16713;52.916;12.834;2023-03-15T12:59:45;100944.22;;;4.72;63.09
29825;BME280;16713;52.916;12.834;2023-03-15T13:02:24;100949.81;;;4.75;60.73
29825;BME280;16713;52.916;12.834;2023-03-15T13:05:27;100950.81;;;4.79;61.35
29825;BME280;16713;52.916;12.834;2023-03-15T13:08:21;100948.59;;;4.81;60.23
29825;BME280;16713;52.916;12.834;2023-03-15T13:16:55;100952.78;;;4.87;58.94
29825;BME280;16713;52.916;12.834;2023-03-15T13:25:10;100963.75;;;5.05;57.08
29825;BME280;16713;52.916;12.834;2023-03-15T13:30:41;100968.91;;;5.15;54.77
29825;BME280;16713;52.916;12.834;2023-03-15T13:35:53;100969.03;;;5.10;54.68
29825;BME280;16713;52.916;12.834;2023-03-15T13:41:00;100973.19;;;5.38;55.48
29825;BME280;16713;52.916;12.834;2023-03-15T13:43:31;100973.97;;;5.30;56.87
29825;BME280;16713;52.916;12.834;2023-03-15T13:45:59;100976.75;;;5.47;56.22
29825;BME280;16713;52.916;12.834;2023-03-15T13:48:34;100972.16;;;5.56;55.19
29825;BME280;16713;52.916;12.834;2023-03-15T13:51:06;100979.91;;;5.10;55.47
29825;BME280;16713;52.916;12.834;2023-03-15T13:53:35;100976.06;;;5.33;54.12
29825;BME280;16713;52.916;12.834;2023-03-15T13:56:36;100975.28;;;5.41;55.48
29825;BME280;16713;52.916;12.834;2023-03-15T13:59:15;100987.19;;;5.53;55.56
29825;BME280;16713;52.916;12.834;2023-03-15T14:01:42;100977.00;;;5.67;55.08
29825;BME280;16713;52.916;12.834;2023-03-15T14:04:14;100973.63;;;5.62;54.93
29825;BME280;16713;52.916;12.834;2023-03-15T14:06:41;100979.97;;;5.49;54.59
29825;BME280;16713;52.916;12.834;2023-03-15T14:09:22;100989.06;;;5.44;54.45